Time,TemperatureF,DewpointF,PressureIn,WindDirection,WindDirectionDegrees,WindSpeedMPH,WindSpeedGustMPH,Humidity,HourlyPrecipIn,Conditions,Clouds,dailyrainin,SoftwareType,DateUTC
2013-05-24 00:00:00,43.7,40.4,30.36,East,90,0.0,0.0,88,0.00,,,0.00,Wunderground v.1.15,2013-05-24 05:00:00,
2013-05-24 00:05:00,43.6,40.6,30.36,East,90,0.0,0.0,89,0.00,,,0.00,Wunderground v.1.15,2013-05-24 05:05:00,
2013-05-24 00:15:00,43.3,40.3,30.36,East,90,0.0,0.0,89,0.00,,,0.00,Wunderground v.1.15,2013-05-24 05:15:00,
2013-05-24 00:20:00,43.2,40.2,30.36,East,90,0.0,0.0,89,0.00,,,0.00,Wunderground v.1.15,2013-05-24 05:20:00,
2013-05-24 00:25:00,43.1,40.4,30.36,East,90,0.0,0.0,90,0.00,,,0.00,Wunderground v.1.15,2013-05-24 05:25:00,
2013-05-24 00:30:00,42.9,40.2,30.36,East,90,0.0,0.0,90,0.00,,,0.00,Wunderground v.1.15,2013-05-24 05:30:00,
2013-05-24 00:35:00,42.8,40.1,30.36,East,90,0.0,0.0,90,0.00,,,0.00,Wunderground v.1.15,2013-05-24 05:35:00,
2013-05-24 00:45:00,42.6,39.9,30.36,East,90,0.0,0.0,90,0.00,,,0.00,Wunderground v.1.15,2013-05-24 05:45:00,
2013-05-24 00:50:00,42.4,39.7,30.36,East,90,0.0,0.0,90,0.00,,,0.00,Wunderground v.1.15,2013-05-24 05:50:00,
2013-05-24 00:55:00,42.3,39.6,30.37,East,90,0.0,0.0,90,0.00,,,0.00,Wunderground v.1.15,2013-05-24 05:55:00,
2013-05-24 01:05:00,42.0,39.6,30.38,East,90,0.0,0.0,91,0.00,,,0.00,Wunderground v.1.15,2013-05-24 06:05:00,
2013-05-24 01:15:00,42.4,40.0,30.38,East,90,0.0,0.0,91,0.00,,,0.00,Wunderground v.1.15,2013-05-24 06:15:00,
2013-05-24 01:20:00,42.9,40.7,30.38,East,90,0.0,0.0,92,0.00,,,0.00,Wunderground v.1.15,2013-05-24 06:20:00,
2013-05-24 01:25:00,43.4,41.2,30.38,East,90,0.0,0.0,92,0.00,,,0.00,Wunderground v.1.15,2013-05-24 06:25:00,
2013-05-24 01:30:00,43.3,40.8,30.39,East,90,0.0,0.0,91,0.00,,,0.00,Wunderground v.1.15,2013-05-24 06:30:00,
2013-05-24 01:35:00,43.2,40.8,30.39,East,90,0.0,0.0,91,0.00,,,0.00,Wunderground v.1.15,2013-05-24 06:35:00,
2013-05-24 01:40:00,42.9,40.5,30.39,East,90,0.0,0.0,91,0.00,,,0.00,Wunderground v.1.15,2013-05-24 06:40:00,
2013-05-24 01:50:00,42.6,39.9,30.40,East,90,0.0,0.0,90,0.00,,,0.00,Wunderground v.1.15,2013-05-24 06:50:00,
2013-05-24 01:55:00,42.5,39.8,30.40,ESE,117,0.0,0.0,90,0.00,,,0.00,Wunderground v.1.15,2013-05-24 06:55:00,
2013-05-24 02:00:00,42.3,39.6,30.40,ESE,117,0.0,0.0,90,0.00,,,0.00,Wunderground v.1.15,2013-05-24 07:00:00,
2013-05-24 02:05:00,42.1,39.4,30.40,ESE,117,0.0,0.0,90,0.00,,,0.00,Wunderground v.1.15,2013-05-24 07:05:00,
2013-05-24 02:15:00,41.6,38.6,30.41,ESE,117,0.0,0.0,89,0.00,,,0.00,Wunderground v.1.15,2013-05-24 07:15:00,
2013-05-24 02:20:00,41.4,38.4,30.42,ESE,117,0.0,0.0,89,0.00,,,0.00,Wunderground v.1.15,2013-05-24 07:20:00,
2013-05-24 02:25:00,41.2,38.2,30.42,East,99,0.0,0.0,89,0.00,,,0.00,Wunderground v.1.15,2013-05-24 07:25:00,
2013-05-24 02:35:00,41.0,38.0,30.42,East,100,0.0,0.0,89,0.00,,,0.00,Wunderground v.1.15,2013-05-24 07:35:00,
2013-05-24 02:40:00,40.9,37.9,30.42,East,100,0.0,0.0,89,0.00,,,0.00,Wunderground v.1.15,2013-05-24 07:40:00,
2013-05-24 02:45:00,40.7,37.4,30.42,East,99,0.0,0.0,88,0.00,,,0.00,Wunderground v.1.15,2013-05-24 07:45:00,
2013-05-24 02:50:00,40.6,37.3,30.42,East,101,0.0,0.0,88,0.00,,,0.00,Wunderground v.1.15,2013-05-24 07:50:00,
2013-05-24 03:00:00,40.4,37.1,30.42,East,92,0.0,0.0,88,0.00,,,0.00,Wunderground v.1.15,2013-05-24 08:00:00,
2013-05-24 03:05:00,40.4,37.1,30.43,East,93,0.0,0.0,88,0.00,,,0.00,Wunderground v.1.15,2013-05-24 08:05:00,
2013-05-24 03:15:00,40.1,36.5,30.43,East,92,0.0,0.0,87,0.00,,,0.00,Wunderground v.1.15,2013-05-24 08:15:00,
2013-05-24 03:20:00,39.9,36.3,30.43,East,93,0.0,0.0,87,0.00,,,0.00,Wunderground v.1.15,2013-05-24 08:20:00,
2013-05-24 03:25:00,39.8,36.2,30.43,East,92,0.0,0.0,87,0.00,,,0.00,Wunderground v.1.15,2013-05-24 08:25:00,
2013-05-24 03:30:00,39.7,36.1,30.43,East,92,0.0,0.0,87,0.00,,,0.00,Wunderground v.1.15,2013-05-24 08:30:00,
2013-05-24 03:35:00,39.5,36.0,30.43,East,92,0.0,0.0,87,0.00,,,0.00,Wunderground v.1.15,2013-05-24 08:35:00,
2013-05-24 03:40:00,39.3,35.8,30.43,East,93,0.0,0.0,87,0.00,,,0.00,Wunderground v.1.15,2013-05-24 08:40:00,
2013-05-24 03:45:00,39.1,35.6,30.43,East,93,0.0,0.0,87,0.00,,,0.00,Wunderground v.1.15,2013-05-24 08:45:00,
2013-05-24 03:55:00,38.6,35.1,30.43,East,92,0.0,0.0,87,0.00,,,0.00,Wunderground v.1.15,2013-05-24 08:55:00,
2013-05-24 04:00:00,38.4,34.9,30.43,East,93,0.0,0.0,87,0.00,,,0.00,Wunderground v.1.15,2013-05-24 09:00:00,
2013-05-24 04:05:00,38.0,34.5,30.44,East,92,0.0,0.0,87,0.00,,,0.00,Wunderground v.1.15,2013-05-24 09:05:00,
2013-05-24 04:15:00,37.6,34.4,30.44,East,92,0.0,0.0,88,0.00,,,0.00,Wunderground v.1.15,2013-05-24 09:15:00,
2013-05-24 04:20:00,37.4,34.2,30.44,East,93,0.0,0.0,88,0.00,,,0.00,Wunderground v.1.15,2013-05-24 09:20:00,
2013-05-24 04:25:00,37.2,34.3,30.43,East,93,0.0,0.0,89,0.00,,,0.00,Wunderground v.1.15,2013-05-24 09:25:00,
2013-05-24 04:30:00,37.0,34.1,30.43,East,93,0.0,0.0,89,0.00,,,0.00,Wunderground v.1.15,2013-05-24 09:30:00,
2013-05-24 04:35:00,36.9,34.0,30.43,East,93,0.0,0.0,89,0.00,,,0.00,Wunderground v.1.15,2013-05-24 09:35:00,
2013-05-24 04:40:00,36.7,33.8,30.43,East,92,0.0,0.0,89,0.00,,,0.00,Wunderground v.1.15,2013-05-24 09:40:00,
2013-05-24 04:50:00,36.4,33.7,30.44,East,92,0.0,0.0,90,0.00,,,0.00,Wunderground v.1.15,2013-05-24 09:50:00,
2013-05-24 04:55:00,36.3,33.6,30.44,East,93,0.0,0.0,90,0.00,,,0.00,Wunderground v.1.15,2013-05-24 09:55:00,
2013-05-24 05:00:00,36.1,33.5,30.44,East,92,0.0,0.0,90,0.00,,,0.00,Wunderground v.1.15,2013-05-24 10:00:00,
2013-05-24 05:05:00,35.9,33.3,30.44,East,93,0.0,0.0,90,0.00,,,0.00,Wunderground v.1.15,2013-05-24 10:05:00,
2013-05-24 05:15:00,35.5,32.9,30.45,East,93,0.0,0.0,90,0.00,,,0.00,Wunderground v.1.15,2013-05-24 10:15:00,
2013-05-24 05:20:00,35.3,32.7,30.46,East,93,0.0,0.0,90,0.00,,,0.00,Wunderground v.1.15,2013-05-24 10:20:00,
2013-05-24 05:25:00,35.1,32.7,30.46,East,92,0.0,0.0,91,0.00,,,0.00,Wunderground v.1.15,2013-05-24 10:25:00,
2013-05-24 05:30:00,34.9,32.5,30.46,East,93,0.0,0.0,91,0.00,,,0.00,Wunderground v.1.15,2013-05-24 10:30:00,
2013-05-24 05:35:00,34.7,32.3,30.46,East,93,0.0,0.0,91,0.00,,,0.00,Wunderground v.1.15,2013-05-24 10:35:00,
2013-05-24 05:40:00,34.4,32.0,30.46,East,92,0.0,0.0,91,0.00,,,0.00,Wunderground v.1.15,2013-05-24 10:40:00,
2013-05-24 05:45:00,34.4,32.0,30.47,East,93,0.0,0.0,91,0.00,,,0.00,Wunderground v.1.15,2013-05-24 10:45:00,
2013-05-24 05:55:00,34.4,32.0,30.48,East,93,0.0,0.0,91,0.00,,,0.00,Wunderground v.1.15,2013-05-24 10:55:00,
2013-05-24 06:00:00,34.4,32.0,30.48,East,92,0.0,0.0,91,0.00,,,0.00,Wunderground v.1.15,2013-05-24 11:00:00,
2013-05-24 06:05:00,34.3,31.9,30.48,East,92,0.0,0.0,91,0.00,,,0.00,Wunderground v.1.15,2013-05-24 11:05:00,
2013-05-24 06:15:00,34.2,31.8,30.49,East,93,0.0,0.0,91,0.00,,,0.00,Wunderground v.1.15,2013-05-24 11:15:00,
2013-05-24 06:20:00,34.2,32.1,30.49,East,92,0.0,0.0,92,0.00,,,0.00,Wunderground v.1.15,2013-05-24 11:20:00,
2013-05-24 06:25:00,34.3,32.2,30.49,East,93,0.0,0.0,92,0.00,,,0.00,Wunderground v.1.15,2013-05-24 11:25:00,
2013-05-24 06:30:00,34.4,32.3,30.50,East,92,0.0,0.0,92,0.00,,,0.00,Wunderground v.1.15,2013-05-24 11:30:00,
2013-05-24 06:35:00,34.6,32.5,30.50,East,93,0.0,0.0,92,0.00,,,0.00,Wunderground v.1.15,2013-05-24 11:35:00,
2013-05-24 06:40:00,34.8,32.7,30.50,East,93,0.0,0.0,92,0.00,,,0.00,Wunderground v.1.15,2013-05-24 11:40:00,
2013-05-24 06:50:00,35.9,34.1,30.50,East,93,0.0,0.0,93,0.00,,,0.00,Wunderground v.1.15,2013-05-24 11:50:00,
2013-05-24 06:55:00,36.6,34.8,30.50,East,92,0.0,0.0,93,0.00,,,0.00,Wunderground v.1.15,2013-05-24 11:55:00,
2013-05-24 07:00:00,37.1,35.3,30.51,East,92,0.0,0.0,93,0.00,,,0.00,Wunderground v.1.15,2013-05-24 12:00:00,
2013-05-24 07:05:00,37.6,35.8,30.51,East,93,0.0,0.0,93,0.00,,,0.00,Wunderground v.1.15,2013-05-24 12:05:00,
2013-05-24 07:15:00,38.4,36.6,30.52,East,93,0.0,0.0,93,0.00,,,0.00,Wunderground v.1.15,2013-05-24 12:15:00,
2013-05-24 07:20:00,38.8,36.9,30.52,East,93,0.0,0.0,93,0.00,,,0.00,Wunderground v.1.15,2013-05-24 12:20:00,
2013-05-24 07:25:00,39.3,37.2,30.52,East,92,0.0,0.0,92,0.00,,,0.00,Wunderground v.1.15,2013-05-24 12:25:00,
2013-05-24 07:30:00,39.8,37.7,30.52,East,93,0.0,0.0,92,0.00,,,0.00,Wunderground v.1.15,2013-05-24 12:30:00,
2013-05-24 07:35:00,40.6,38.2,30.52,East,91,0.0,0.0,91,0.00,,,0.00,Wunderground v.1.15,2013-05-24 12:35:00,
2013-05-24 07:40:00,41.7,39.0,30.52,East,91,0.0,0.0,90,0.00,,,0.00,Wunderground v.1.15,2013-05-24 12:40:00,
2013-05-24 07:50:00,43.7,39.2,30.52,ENE,76,0.0,0.0,84,0.00,,,0.00,Wunderground v.1.15,2013-05-24 12:50:00,
2013-05-24 08:00:00,45.0,38.6,30.52,NNE,26,1.0,1.0,78,0.00,,,0.00,Wunderground v.1.15,2013-05-24 13:00:00,
2013-05-24 08:05:00,45.9,38.4,30.52,NNE,20,1.0,1.0,75,0.00,,,0.00,Wunderground v.1.15,2013-05-24 13:05:00,
2013-05-24 08:15:00,47.1,38.2,30.52,NNW,329,0.0,1.0,71,0.00,,,0.00,Wunderground v.1.15,2013-05-24 13:15:00,
2013-05-24 08:20:00,47.5,37.5,30.52,SE,131,0.0,0.0,68,0.00,,,0.00,Wunderground v.1.15,2013-05-24 13:20:00,
2013-05-24 08:25:00,47.4,37.4,30.52,SE,132,0.0,0.0,68,0.00,,,0.00,Wunderground v.1.15,2013-05-24 13:25:00,
2013-05-24 08:30:00,47.7,37.3,30.52,SSE,147,0.0,0.0,67,0.00,,,0.00,Wunderground v.1.15,2013-05-24 13:30:00,
2013-05-24 08:40:00,48.5,37.3,30.52,East,96,1.0,1.0,65,0.00,,,0.00,Wunderground v.1.15,2013-05-24 13:40:00,
2013-05-24 08:45:00,48.8,35.9,30.53,ESE,112,1.0,1.0,61,0.00,,,0.00,Wunderground v.1.15,2013-05-24 13:45:00,
2013-05-24 08:50:00,48.9,36.4,30.53,SSE,154,1.0,1.0,62,0.00,,,0.00,Wunderground v.1.15,2013-05-24 13:50:00,
2013-05-24 09:00:00,49.2,36.7,30.53,East,101,1.0,2.0,62,0.00,,,0.00,Wunderground v.1.15,2013-05-24 14:00:00,
2013-05-24 09:05:00,49.7,35.5,30.53,East,92,1.0,2.0,58,0.00,,,0.00,Wunderground v.1.15,2013-05-24 14:05:00,
2013-05-24 09:15:00,50.1,35.9,30.53,ESE,119,1.0,5.0,58,0.00,,,0.00,Wunderground v.1.15,2013-05-24 14:15:00,
2013-05-24 09:20:00,49.9,35.3,30.53,ESE,107,0.0,0.0,57,0.00,,,0.00,Wunderground v.1.15,2013-05-24 14:20:00,
2013-05-24 09:30:00,50.5,35.4,30.52,East,96,0.0,0.0,56,0.00,,,0.00,Wunderground v.1.15,2013-05-24 14:30:00,
2013-05-24 09:35:00,50.9,35.3,30.52,East,98,1.0,1.0,55,0.00,,,0.00,Wunderground v.1.15,2013-05-24 14:35:00,
2013-05-24 09:40:00,50.8,34.3,30.52,SSE,152,1.0,1.0,53,0.00,,,0.00,Wunderground v.1.15,2013-05-24 14:40:00,
2013-05-24 09:50:00,50.9,36.2,30.53,SSE,165,1.0,1.0,57,0.00,,,0.00,Wunderground v.1.15,2013-05-24 14:50:00,
2013-05-24 09:55:00,50.9,34.8,30.53,SE,132,1.0,1.0,54,0.00,,,0.00,Wunderground v.1.15,2013-05-24 14:55:00,
2013-05-24 10:00:00,51.3,35.7,30.53,ESE,113,0.0,0.0,55,0.00,,,0.00,Wunderground v.1.15,2013-05-24 15:00:00,
2013-05-24 10:05:00,52.0,36.8,30.53,ESE,119,0.0,6.0,56,0.00,,,0.00,Wunderground v.1.15,2013-05-24 15:05:00,
2013-05-24 10:15:00,52.6,35.9,30.53,ESE,103,1.0,1.0,53,0.00,,,0.00,Wunderground v.1.15,2013-05-24 15:15:00,
2013-05-24 10:20:00,52.8,37.1,30.52,SE,130,0.0,0.0,55,0.00,,,0.00,Wunderground v.1.15,2013-05-24 15:20:00,
2013-05-24 10:25:00,54.2,37.4,30.52,NNW,329,1.0,2.0,53,0.00,,,0.00,Wunderground v.1.15,2013-05-24 15:25:00,
2013-05-24 10:30:00,54.9,36.1,30.52,NNW,327,1.0,1.0,49,0.00,,,0.00,Wunderground v.1.15,2013-05-24 15:30:00,
2013-05-24 10:35:00,55.0,35.7,30.52,ENE,65,1.0,1.0,48,0.00,,,0.00,Wunderground v.1.15,2013-05-24 15:35:00,
2013-05-24 10:40:00,55.4,38.5,30.52,ENE,67,0.0,0.0,53,0.00,,,0.00,Wunderground v.1.15,2013-05-24 15:40:00,
2013-05-24 10:50:00,56.4,38.5,30.52,NW,314,0.0,0.0,51,0.00,,,0.00,Wunderground v.1.15,2013-05-24 15:50:00,
2013-05-24 11:00:00,57.6,40.1,30.51,SSW,210,1.0,4.0,52,0.00,,,0.00,Wunderground v.1.15,2013-05-24 16:00:00,
2013-05-24 11:05:00,56.5,39.6,30.51,ESE,112,1.0,4.0,53,0.00,,,0.00,Wunderground v.1.15,2013-05-24 16:05:00,
2013-05-24 11:15:00,57.6,38.6,30.51,East,97,0.0,4.0,49,0.00,,,0.00,Wunderground v.1.15,2013-05-24 16:15:00,
2013-05-24 11:20:00,57.6,37.5,30.50,NE,45,1.0,1.0,47,0.00,,,0.00,Wunderground v.1.15,2013-05-24 16:20:00,
2013-05-24 11:25:00,57.7,39.7,30.50,NNW,332,1.0,5.0,51,0.00,,,0.00,Wunderground v.1.15,2013-05-24 16:25:00,
2013-05-24 11:30:00,58.5,38.9,30.50,NNE,13,1.0,1.0,48,0.00,,,0.00,Wunderground v.1.15,2013-05-24 16:30:00,
2013-05-24 11:35:00,58.5,39.4,30.51,NNW,331,2.0,2.0,49,0.00,,,0.00,Wunderground v.1.15,2013-05-24 16:35:00,
2013-05-24 11:45:00,59.3,40.1,30.50,NNW,333,1.0,1.0,49,0.00,,,0.00,Wunderground v.1.15,2013-05-24 16:45:00,
2013-05-24 11:50:00,60.3,40.5,30.50,NNW,338,0.0,4.0,48,0.00,,,0.00,Wunderground v.1.15,2013-05-24 16:50:00,
2013-05-24 11:55:00,61.1,39.6,30.50,East,92,1.0,4.0,45,0.00,,,0.00,Wunderground v.1.15,2013-05-24 16:55:00,
2013-05-24 12:00:00,60.7,38.6,30.49,NW,322,2.0,2.0,44,0.00,,,0.00,Wunderground v.1.15,2013-05-24 17:00:00,
2013-05-24 12:05:00,60.9,41.1,30.50,ESE,117,2.0,2.0,48,0.00,,,0.00,Wunderground v.1.15,2013-05-24 17:05:00,
2013-05-24 12:15:00,61.7,39.6,30.50,North,349,1.0,2.0,44,0.00,,,0.00,Wunderground v.1.15,2013-05-24 17:15:00,
2013-05-24 12:20:00,61.6,41.2,30.50,North,355,1.0,1.0,47,0.00,,,0.00,Wunderground v.1.15,2013-05-24 17:20:00,
2013-05-24 12:25:00,62.1,39.3,30.50,North,5,0.0,1.0,43,0.00,,,0.00,Wunderground v.1.15,2013-05-24 17:25:00,
2013-05-24 12:35:00,62.5,40.3,30.49,ENE,67,1.0,4.0,44,0.00,,,0.00,Wunderground v.1.15,2013-05-24 17:35:00,
2013-05-24 12:40:00,62.3,40.1,30.49,South,169,1.0,4.0,44,0.00,,,0.00,Wunderground v.1.15,2013-05-24 17:40:00,
2013-05-24 12:45:00,61.9,39.1,30.49,ESE,114,1.0,4.0,43,0.00,,,0.00,Wunderground v.1.15,2013-05-24 17:45:00,
2013-05-24 12:50:00,62.7,38.6,30.49,NNW,334,1.0,1.0,41,0.00,,,0.00,Wunderground v.1.15,2013-05-24 17:50:00,
2013-05-24 12:55:00,62.9,39.4,30.48,East,95,1.0,1.0,42,0.00,,,0.00,Wunderground v.1.15,2013-05-24 17:55:00,
2013-05-24 13:00:00,61.6,40.6,30.48,East,96,1.0,1.0,46,0.00,,,0.00,Wunderground v.1.15,2013-05-24 18:00:00,
2013-05-24 13:05:00,62.3,39.5,30.48,SSW,207,1.0,1.0,43,0.00,,,0.00,Wunderground v.1.15,2013-05-24 18:05:00,
2013-05-24 13:15:00,61.3,39.2,30.47,SSW,192,0.0,0.0,44,0.00,,,0.00,Wunderground v.1.15,2013-05-24 18:15:00,
2013-05-24 13:20:00,62.0,40.4,30.47,ESE,109,0.0,0.0,45,0.00,,,0.00,Wunderground v.1.15,2013-05-24 18:20:00,
2013-05-24 13:30:00,62.0,39.8,30.47,SSE,167,1.0,4.0,44,0.00,,,0.00,Wunderground v.1.15,2013-05-24 18:30:00,
2013-05-24 13:35:00,61.4,38.1,30.47,South,171,1.0,4.0,42,0.00,,,0.00,Wunderground v.1.15,2013-05-24 18:35:00,
2013-05-24 13:40:00,62.0,39.8,30.46,East,92,1.0,2.0,44,0.00,,,0.00,Wunderground v.1.15,2013-05-24 18:40:00,
2013-05-24 13:45:00,62.4,37.7,30.46,SE,145,0.0,2.0,40,0.00,,,0.00,Wunderground v.1.15,2013-05-24 18:45:00,
2013-05-24 13:55:00,62.6,38.6,30.46,SSE,165,1.0,1.0,41,0.00,,,0.00,Wunderground v.1.15,2013-05-24 18:55:00,
2013-05-24 14:00:00,61.5,35.6,30.45,SSE,168,1.0,1.0,38,0.00,,,0.00,Wunderground v.1.15,2013-05-24 19:00:00,
2013-05-24 14:05:00,62.6,37.9,30.45,ESE,123,0.0,1.0,40,0.00,,,0.00,Wunderground v.1.15,2013-05-24 19:05:00,
2013-05-24 14:15:00,63.1,40.2,30.45,South,171,1.0,4.0,43,0.00,,,0.00,Wunderground v.1.15,2013-05-24 19:15:00,
2013-05-24 14:20:00,64.0,39.2,30.44,South,172,1.0,1.0,40,0.00,,,0.00,Wunderground v.1.15,2013-05-24 19:20:00,
2013-05-24 14:25:00,64.2,39.4,30.44,South,179,1.0,1.0,40,0.00,,,0.00,Wunderground v.1.15,2013-05-24 19:25:00,
2013-05-24 14:30:00,64.3,36.0,30.44,SSE,156,1.0,1.0,35,0.00,,,0.00,Wunderground v.1.15,2013-05-24 19:30:00,
2013-05-24 14:35:00,65.5,39.9,30.44,East,97,1.0,1.0,39,0.00,,,0.00,Wunderground v.1.15,2013-05-24 19:35:00,
2013-05-24 14:45:00,64.7,37.1,30.43,East,92,1.0,1.0,36,0.00,,,0.00,Wunderground v.1.15,2013-05-24 19:45:00,
2013-05-24 14:50:00,65.2,40.3,30.43,South,181,1.0,1.0,40,0.00,,,0.00,Wunderground v.1.15,2013-05-24 19:50:00,
2013-05-24 14:55:00,64.7,37.1,30.42,SSE,160,1.0,2.0,36,0.00,,,0.00,Wunderground v.1.15,2013-05-24 19:55:00,
2013-05-24 15:00:00,65.1,38.2,30.42,SSE,163,1.0,1.0,37,0.00,,,0.00,Wunderground v.1.15,2013-05-24 20:00:00,
2013-05-24 15:05:00,65.3,40.3,30.41,South,176,1.0,1.0,40,0.00,,,0.00,Wunderground v.1.15,2013-05-24 20:05:00,
2013-05-24 15:15:00,65.4,37.0,30.41,East,81,1.0,1.0,35,0.00,,,0.00,Wunderground v.1.15,2013-05-24 20:15:00,
2013-05-24 15:20:00,65.7,38.0,30.41,East,101,1.0,1.0,36,0.00,,,0.00,Wunderground v.1.15,2013-05-24 20:20:00,
2013-05-24 15:25:00,65.9,36.0,30.41,ESE,114,1.0,1.0,33,0.00,,,0.00,Wunderground v.1.15,2013-05-24 20:25:00,
2013-05-24 15:30:00,65.8,38.1,30.41,ESE,123,1.0,1.0,36,0.00,,,0.00,Wunderground v.1.15,2013-05-24 20:30:00,
2013-05-24 15:35:00,65.7,38.7,30.41,ESE,106,0.0,1.0,37,0.00,,,0.00,Wunderground v.1.15,2013-05-24 20:35:00,
2013-05-24 15:45:00,66.5,39.4,30.41,East,98,1.0,1.0,37,0.00,,,0.00,Wunderground v.1.15,2013-05-24 20:45:00,
2013-05-24 15:55:00,66.7,36.7,30.41,SSE,160,1.0,1.0,33,0.00,,,0.00,Wunderground v.1.15,2013-05-24 20:55:00,
2013-05-24 16:05:00,66.0,37.5,30.40,ESE,110,0.0,1.0,35,0.00,,,0.00,Wunderground v.1.15,2013-05-24 21:05:00,
2013-05-24 16:15:00,66.1,41.1,30.40,SE,143,1.0,5.0,40,0.00,,,0.00,Wunderground v.1.15,2013-05-24 21:15:00,
2013-05-24 16:20:00,66.1,38.4,30.40,SSE,153,1.0,1.0,36,0.00,,,0.00,Wunderground v.1.15,2013-05-24 21:20:00,
2013-05-24 16:25:00,66.3,42.5,30.40,ESE,120,1.0,1.0,42,0.00,,,0.00,Wunderground v.1.15,2013-05-24 21:25:00,
2013-05-24 16:30:00,66.3,37.1,30.40,ESE,104,0.0,0.0,34,0.00,,,0.00,Wunderground v.1.15,2013-05-24 21:30:00,
2013-05-24 16:40:00,66.3,37.1,30.39,ESE,117,1.0,1.0,34,0.00,,,0.00,Wunderground v.1.15,2013-05-24 21:40:00,
2013-05-24 16:45:00,66.3,38.5,30.39,SSE,157,1.0,1.0,36,0.00,,,0.00,Wunderground v.1.15,2013-05-24 21:45:00,
2013-05-24 16:50:00,66.4,37.2,30.39,East,91,1.0,1.0,34,0.00,,,0.00,Wunderground v.1.15,2013-05-24 21:50:00,
2013-05-24 16:55:00,67.0,42.5,30.38,ESE,109,0.0,1.0,41,0.00,,,0.00,Wunderground v.1.15,2013-05-24 21:55:00,
2013-05-24 17:05:00,66.3,40.6,30.39,South,177,1.0,1.0,39,0.00,,,0.00,Wunderground v.1.15,2013-05-24 22:05:00,
2013-05-24 17:15:00,66.2,40.5,30.38,SSE,155,0.0,0.0,39,0.00,,,0.00,Wunderground v.1.15,2013-05-24 22:15:00,
2013-05-24 17:20:00,66.0,36.8,30.38,South,171,0.0,0.0,34,0.00,,,0.00,Wunderground v.1.15,2013-05-24 22:20:00,
2013-05-24 17:25:00,65.7,37.3,30.38,SSE,165,0.0,0.0,35,0.00,,,0.00,Wunderground v.1.15,2013-05-24 22:25:00,
2013-05-24 17:30:00,65.4,37.0,30.38,SSE,165,1.0,1.0,35,0.00,,,0.00,Wunderground v.1.15,2013-05-24 22:30:00,
2013-05-24 17:35:00,65.3,38.3,30.37,SSE,167,1.0,1.0,37,0.00,,,0.00,Wunderground v.1.15,2013-05-24 22:35:00,
2013-05-24 17:40:00,65.4,37.7,30.37,SE,134,0.0,1.0,36,0.00,,,0.00,Wunderground v.1.15,2013-05-24 22:40:00,
2013-05-24 17:45:00,65.2,37.6,30.37,SSE,163,1.0,1.0,36,0.00,,,0.00,Wunderground v.1.15,2013-05-24 22:45:00,
2013-05-24 17:50:00,65.2,37.6,30.37,SSE,163,0.0,0.0,36,0.00,,,0.00,Wunderground v.1.15,2013-05-24 22:50:00,
2013-05-24 17:55:00,65.2,38.9,30.37,SE,139,0.0,0.0,38,0.00,,,0.00,Wunderground v.1.15,2013-05-24 22:55:00,
2013-05-24 18:05:00,65.1,38.8,30.37,SSE,152,1.0,1.0,38,0.00,,,0.00,Wunderground v.1.15,2013-05-24 23:05:00,
2013-05-24 18:15:00,64.7,38.5,30.36,SSE,164,0.0,1.0,38,0.00,,,0.00,Wunderground v.1.15,2013-05-24 23:15:00,
2013-05-24 18:20:00,64.7,39.8,30.35,ESE,117,0.0,0.0,40,0.00,,,0.00,Wunderground v.1.15,2013-05-24 23:20:00,
2013-05-24 18:25:00,64.8,39.2,30.35,SSE,167,1.0,1.0,39,0.00,,,0.00,Wunderground v.1.15,2013-05-24 23:25:00,
2013-05-24 18:30:00,64.5,38.3,30.35,SSE,165,1.0,1.0,38,0.00,,,0.00,Wunderground v.1.15,2013-05-24 23:30:00,
2013-05-24 18:35:00,64.1,39.3,30.35,South,173,1.0,5.0,40,0.00,,,0.00,Wunderground v.1.15,2013-05-24 23:35:00,
2013-05-24 18:40:00,63.7,38.9,30.36,South,175,1.0,1.0,40,0.00,,,0.00,Wunderground v.1.15,2013-05-24 23:40:00,
2013-05-24 18:45:00,63.6,37.5,30.36,SSE,163,1.0,1.0,38,0.00,,,0.00,Wunderground v.1.15,2013-05-24 23:45:00,
2013-05-24 18:50:00,63.6,37.5,30.36,SSE,163,0.0,0.0,38,0.00,,,0.00,Wunderground v.1.15,2013-05-24 23:50:00,
2013-05-24 18:55:00,63.7,38.9,30.36,SSE,163,0.0,0.0,40,0.00,,,0.00,Wunderground v.1.15,2013-05-24 23:55:00,
2013-05-24 19:05:00,63.4,38.6,30.36,SSE,167,0.0,0.0,40,0.00,,,0.00,Wunderground v.1.15,2013-05-25 00:05:00,
2013-05-24 19:15:00,63.2,37.8,30.36,SSE,168,0.0,0.0,39,0.00,,,0.00,Wunderground v.1.15,2013-05-25 00:15:00,
2013-05-24 19:25:00,63.1,39.0,30.36,SSE,168,0.0,0.0,41,0.00,,,0.00,Wunderground v.1.15,2013-05-25 00:25:00,
2013-05-24 19:30:00,62.9,38.2,30.37,SSE,168,0.0,0.0,40,0.00,,,0.00,Wunderground v.1.15,2013-05-25 00:30:00,
2013-05-24 19:35:00,62.7,41.0,30.37,SSE,168,0.0,0.0,45,0.00,,,0.00,Wunderground v.1.15,2013-05-25 00:35:00,
2013-05-24 19:40:00,62.6,40.9,30.37,SSE,168,0.0,0.0,45,0.00,,,0.00,Wunderground v.1.15,2013-05-25 00:40:00,
2013-05-24 19:45:00,62.3,41.8,30.37,SSE,168,0.0,0.0,47,0.00,,,0.00,Wunderground v.1.15,2013-05-25 00:45:00,
2013-05-24 19:50:00,61.8,40.8,30.37,SSE,168,0.0,0.0,46,0.00,,,0.00,Wunderground v.1.15,2013-05-25 00:50:00,
2013-05-24 20:00:00,61.0,41.2,30.37,SSE,168,0.0,0.0,48,0.00,,,0.00,Wunderground v.1.15,2013-05-25 01:00:00,
2013-05-24 20:05:00,60.3,41.0,30.38,SSE,168,0.0,0.0,49,0.00,,,0.00,Wunderground v.1.15,2013-05-25 01:05:00,
2013-05-24 20:15:00,58.5,42.4,30.38,SSE,168,0.0,0.0,55,0.00,,,0.00,Wunderground v.1.15,2013-05-25 01:15:00,
2013-05-24 20:25:00,57.1,42.5,30.38,SSE,168,0.0,0.0,58,0.00,,,0.00,Wunderground v.1.15,2013-05-25 01:25:00,
2013-05-24 20:30:00,56.3,40.8,30.38,SSE,168,0.0,0.0,56,0.00,,,0.00,Wunderground v.1.15,2013-05-25 01:30:00,
2013-05-24 20:35:00,55.7,41.6,30.38,SSE,159,0.0,0.0,59,0.00,,,0.00,Wunderground v.1.15,2013-05-25 01:35:00,
2013-05-24 20:40:00,55.2,41.5,30.38,SSE,159,0.0,0.0,60,0.00,,,0.00,Wunderground v.1.15,2013-05-25 01:40:00,
2013-05-24 20:45:00,54.8,41.6,30.39,SSE,159,0.0,0.0,61,0.00,,,0.00,Wunderground v.1.15,2013-05-25 01:45:00,
2013-05-24 20:50:00,54.3,41.6,30.39,SSE,159,0.0,0.0,62,0.00,,,0.00,Wunderground v.1.15,2013-05-25 01:50:00,
2013-05-24 21:00:00,53.5,40.8,30.39,SSE,159,0.0,0.0,62,0.00,,,0.00,Wunderground v.1.15,2013-05-25 02:00:00,
2013-05-24 21:05:00,53.2,40.9,30.40,SSE,159,0.0,0.0,63,0.00,,,0.00,Wunderground v.1.15,2013-05-25 02:05:00,
2013-05-24 21:15:00,52.4,41.0,30.41,SSE,159,0.0,0.0,65,0.00,,,0.00,Wunderground v.1.15,2013-05-25 02:15:00,
2013-05-24 21:20:00,52.1,41.1,30.41,SSE,159,0.0,0.0,66,0.00,,,0.00,Wunderground v.1.15,2013-05-25 02:20:00,
2013-05-24 21:25:00,51.6,41.0,30.41,SSE,159,0.0,0.0,67,0.00,,,0.00,Wunderground v.1.15,2013-05-25 02:25:00,
2013-05-24 21:30:00,51.2,41.0,30.41,SSE,159,0.0,0.0,68,0.00,,,0.00,Wunderground v.1.15,2013-05-25 02:30:00,
2013-05-24 21:40:00,50.7,41.3,30.42,SSE,159,0.0,0.0,70,0.00,,,0.00,Wunderground v.1.15,2013-05-25 02:40:00,
2013-05-24 21:45:00,50.5,41.4,30.42,SSE,159,0.0,0.0,71,0.00,,,0.00,Wunderground v.1.15,2013-05-25 02:45:00,
2013-05-24 21:50:00,50.3,41.6,30.43,SSE,159,0.0,0.0,72,0.00,,,0.00,Wunderground v.1.15,2013-05-25 02:50:00,
2013-05-24 22:00:00,49.9,42.3,30.42,SSE,159,0.0,0.0,75,0.00,,,0.00,Wunderground v.1.15,2013-05-25 03:00:00,
2013-05-24 22:05:00,49.5,42.2,30.42,SSE,159,0.0,0.0,76,0.00,,,0.00,Wunderground v.1.15,2013-05-25 03:05:00,
2013-05-24 22:15:00,49.1,42.5,30.42,SSE,159,0.0,0.0,78,0.00,,,0.00,Wunderground v.1.15,2013-05-25 03:15:00,
2013-05-24 22:20:00,49.0,42.8,30.43,SSE,159,0.0,0.0,79,0.00,,,0.00,Wunderground v.1.15,2013-05-25 03:20:00,
2013-05-24 22:30:00,48.6,43.0,30.42,SSE,159,0.0,0.0,81,0.00,,,0.00,Wunderground v.1.15,2013-05-25 03:30:00,
2013-05-24 22:35:00,48.4,43.2,30.41,SSE,159,0.0,0.0,82,0.00,,,0.00,Wunderground v.1.15,2013-05-25 03:35:00,
2013-05-24 22:40:00,48.4,43.2,30.41,SSE,159,0.0,0.0,82,0.00,,,0.00,Wunderground v.1.15,2013-05-25 03:40:00,
2013-05-24 22:45:00,48.3,43.4,30.41,SSE,159,0.0,0.0,83,0.00,,,0.00,Wunderground v.1.15,2013-05-25 03:45:00,
2013-05-24 22:55:00,48.7,44.1,30.41,SSE,159,0.0,0.0,84,0.00,,,0.00,Wunderground v.1.15,2013-05-25 03:55:00,
2013-05-24 23:00:00,48.8,43.9,30.41,SSE,159,0.0,0.0,83,0.00,,,0.00,Wunderground v.1.15,2013-05-25 04:00:00,
2013-05-24 23:05:00,49.1,44.2,30.41,SSE,159,0.0,0.0,83,0.00,,,0.00,Wunderground v.1.15,2013-05-25 04:05:00,
2013-05-24 23:15:00,50.1,44.8,30.41,SSE,159,0.0,0.0,82,0.00,,,0.00,Wunderground v.1.15,2013-05-25 04:15:00,
2013-05-24 23:20:00,50.6,44.0,30.40,SSE,159,0.0,0.0,78,0.00,,,0.00,Wunderground v.1.15,2013-05-25 04:20:00,
2013-05-24 23:25:00,51.7,43.7,30.40,SSE,159,0.0,0.0,74,0.00,,,0.00,Wunderground v.1.15,2013-05-25 04:25:00,
2013-05-24 23:30:00,53.0,43.1,30.40,SSE,159,0.0,0.0,69,0.00,,,0.00,Wunderground v.1.15,2013-05-25 04:30:00,
2013-05-24 23:35:00,54.0,43.3,30.39,SSE,159,0.0,0.0,67,0.00,,,0.00,Wunderground v.1.15,2013-05-25 04:35:00,
2013-05-24 23:45:00,54.8,42.9,30.39,SSE,159,0.0,0.0,64,0.00,,,0.00,Wunderground v.1.15,2013-05-25 04:45:00,
2013-05-24 23:50:00,55.1,42.7,30.39,SSE,167,0.0,0.0,63,0.00,,,0.00,Wunderground v.1.15,2013-05-25 04:50:00,
2013-05-24 23:55:00,55.1,42.7,30.39,SSE,167,0.0,0.0,63,0.00,,,0.00,Wunderground v.1.15,2013-05-25 04:55:00,